createdAt,value
2019-06-27T04:24:33.481Z,2328.00
2019-06-27T04:25:33.353Z,2892.00
2019-06-27T04:26:33.343Z,3044.00
2019-06-27T04:27:33.415Z,2804.00
2019-06-27T04:28:33.362Z,2808.00
2019-06-27T04:29:34.580Z,2924.00
2019-06-27T04:30:33.323Z,3072.00
2019-06-27T04:31:33.343Z,3400.00
2019-06-27T04:32:33.281Z,3616.00
2019-06-27T04:33:33.363Z,4508.00
2019-06-27T04:34:33.311Z,5456.00
2019-06-27T04:35:33.380Z,5256.00
2019-06-27T04:38:38.807Z,4980.00
2019-06-27T04:39:37.913Z,5488.00
2019-06-27T04:40:37.925Z,6604.00
2019-06-27T04:41:37.885Z,8452.00
2019-06-27T04:42:37.846Z,10800.00
2019-06-27T04:43:37.920Z,18240.00
2019-06-27T04:44:37.878Z,22304.00
2019-06-27T04:45:37.921Z,22560.00
2019-06-27T04:46:37.897Z,22880.00
2019-06-27T04:47:37.952Z,17760.00
2019-06-27T04:48:37.948Z,9968.00
2019-06-27T04:49:46.670Z,6816.00
2019-06-27T04:51:42.719Z,6852.00
2019-06-27T04:52:51.404Z,12132.00
2019-06-27T04:54:47.122Z,29344.00
2019-06-27T04:55:56.853Z,29856.00
2019-06-27T04:57:51.646Z,31520.00
2019-06-27T04:58:51.682Z,30976.00
2019-06-27T04:59:53.943Z,27872.00
2019-06-27T05:00:51.732Z,28480.00
2019-06-27T05:01:51.608Z,30912.00
2019-06-27T05:02:51.536Z,31552.00
2019-06-27T05:03:51.551Z,29504.00
2019-06-27T05:04:51.573Z,28352.00
2019-06-27T05:05:51.583Z,33088.00
2019-06-27T05:06:51.598Z,34112.00
2019-06-27T05:07:51.649Z,32128.00
2019-06-27T05:08:51.627Z,32960.00
2019-06-27T05:09:51.649Z,36064.00
2019-06-27T05:10:51.675Z,35072.00
2019-06-27T05:11:51.814Z,36640.00
2019-06-27T05:12:51.646Z,35744.00
2019-06-27T05:13:51.713Z,40384.00
2019-06-27T05:14:51.728Z,41280.00
2019-06-27T05:15:51.714Z,41024.00
2019-06-27T05:16:51.797Z,5752.00
2019-06-27T05:17:51.755Z,39008.00
2019-06-27T05:18:51.735Z,40480.00
2019-06-27T05:19:51.780Z,39904.00
2019-06-27T05:20:51.814Z,39936.00
2019-06-27T05:21:51.844Z,37056.00
2019-06-27T05:22:51.834Z,31712.00
2019-06-27T05:23:51.880Z,36288.00
2019-06-27T05:24:51.879Z,11008.00
2019-06-27T05:25:51.931Z,43616.00
2019-06-27T05:26:51.887Z,39552.00
2019-06-27T05:27:51.930Z,39392.00
2019-06-27T05:28:51.953Z,46880.00
2019-06-27T05:30:07.944Z,46208.00
2019-06-27T05:30:51.981Z,51712.00
2019-06-27T05:31:51.975Z,57920.00
2019-06-27T05:32:52.018Z,54496.00
2019-06-27T05:33:51.990Z,10876.00
2019-06-27T05:34:51.983Z,60032.00
2019-06-27T05:36:02.447Z,64224.00
2019-06-27T05:38:06.765Z,51296.00
2019-06-27T05:39:06.531Z,37856.00
2019-06-27T05:41:01.606Z,31712.00
2019-06-27T05:42:01.127Z,27008.00
2019-06-27T05:43:01.226Z,26112.00
2019-06-27T05:44:01.131Z,26752.00
2019-06-27T05:45:01.231Z,23648.00
2019-06-27T05:46:01.176Z,21984.00
2019-06-27T05:47:01.185Z,22592.00
2019-06-27T05:48:01.223Z,21792.00
2019-06-27T05:49:01.206Z,19584.00
2019-06-27T05:51:41.052Z,20000.00
2019-06-27T05:52:40.863Z,20960.00
2019-06-27T05:54:34.432Z,18912.00
2019-06-27T05:55:34.381Z,19168.00
2019-06-27T05:56:34.440Z,19040.00
2019-06-27T05:57:34.486Z,19072.00
2019-06-27T05:58:34.505Z,18304.00
2019-06-27T05:59:34.460Z,18048.00
2019-06-27T06:00:34.516Z,18496.00
2019-06-27T06:01:34.503Z,14888.00
2019-06-27T06:02:34.528Z,20384.00
2019-06-27T06:03:34.546Z,8136.00
2019-06-27T06:04:34.541Z,7840.00
2019-06-27T06:05:34.674Z,19040.00
2019-06-27T06:06:34.733Z,6608.00
2019-06-27T06:07:34.646Z,6388.00
2019-06-27T06:08:34.652Z,7000.00
2019-06-27T06:09:34.633Z,6968.00
2019-06-27T06:10:34.630Z,7400.00
2019-06-27T06:11:34.641Z,7356.00
2019-06-27T06:12:34.704Z,6972.00
2019-06-27T06:13:34.726Z,6972.00
2019-06-27T06:14:34.760Z,11124.00
2019-06-27T06:15:34.723Z,7008.00
2019-06-27T06:16:34.758Z,8092.00
2019-06-27T06:17:34.763Z,6836.00
2019-06-27T06:18:34.746Z,7048.00
2019-06-27T06:19:34.760Z,8652.00
2019-06-27T06:20:34.791Z,15584.00
2019-06-27T06:21:34.793Z,13260.00
2019-06-27T06:22:34.813Z,11768.00
2019-06-27T06:23:34.839Z,6896.00
2019-06-27T06:24:34.875Z,5804.00
2019-06-27T06:25:34.890Z,5232.00
2019-06-27T06:26:34.896Z,5316.00
2019-06-27T06:27:34.873Z,5396.00
2019-06-27T06:28:34.944Z,5276.00
2019-06-27T06:29:34.933Z,5208.00
2019-06-27T06:30:44.199Z,5260.00
2019-06-27T06:31:34.944Z,4812.00
2019-06-27T06:32:34.948Z,5048.00
2019-06-27T06:33:35.000Z,5952.00
2019-06-27T06:34:35.037Z,5908.00
2019-06-27T06:35:35.025Z,5884.00
2019-06-27T06:36:35.127Z,5852.00
2019-06-27T06:37:35.097Z,5828.00
2019-06-27T06:38:35.054Z,5816.00
2019-06-27T06:39:35.042Z,5780.00
2019-06-27T06:40:43.725Z,5752.00
2019-06-27T06:42:40.134Z,5676.00
2019-06-27T06:43:39.771Z,5632.00
2019-06-27T06:44:39.589Z,5592.00
2019-06-27T06:45:39.610Z,5544.00
2019-06-27T06:46:39.602Z,5512.00
2019-06-27T06:47:39.689Z,5496.00
2019-06-27T06:48:39.681Z,4904.00
2019-06-27T06:49:39.656Z,4904.00
2019-06-27T06:50:39.628Z,4848.00
2019-06-27T06:51:39.703Z,5156.00
2019-06-27T06:52:39.709Z,4796.00
2019-06-27T06:53:39.696Z,4720.00
2019-06-27T06:54:39.672Z,4796.00
2019-06-27T06:55:42.666Z,4820.00
2019-06-27T06:56:39.820Z,4752.00
2019-06-27T06:57:39.740Z,4656.00
2019-06-27T06:58:39.748Z,4332.00
2019-06-27T06:59:39.790Z,4644.00
2019-06-27T07:00:39.756Z,4088.00
2019-06-27T07:01:39.765Z,4444.00
2019-06-27T07:02:39.772Z,4544.00
2019-06-27T07:03:39.840Z,4492.00
2019-06-27T07:04:39.774Z,4480.00
2019-06-27T07:05:48.496Z,4576.00
2019-06-27T07:07:44.356Z,4412.00
2019-06-27T07:08:44.367Z,4456.00
2019-06-27T07:09:44.355Z,4448.00
2019-06-27T07:10:44.334Z,4068.00
2019-06-27T07:11:44.332Z,4400.00
2019-06-27T07:12:44.360Z,4036.00
2019-06-27T07:13:44.363Z,4020.00
2019-06-27T07:14:44.370Z,4368.00
2019-06-27T07:15:44.363Z,4028.00
2019-06-27T07:16:44.402Z,4324.00
2019-06-27T07:17:53.073Z,4172.00
2019-06-27T07:19:50.000Z,4208.00
2019-06-27T07:20:49.914Z,4232.00
2019-06-27T07:21:49.925Z,4144.00
2019-06-27T07:22:49.938Z,4000.00
2019-06-27T07:23:50.002Z,4204.00
2019-06-27T07:24:50.284Z,4060.00
2019-06-27T07:25:49.952Z,4032.00
2019-06-27T07:26:49.979Z,3860.00
2019-06-27T07:27:49.982Z,3972.00
2019-06-27T07:28:50.003Z,3988.00
2019-06-27T07:29:50.022Z,4060.00
2019-06-27T07:30:50.017Z,3952.00
2019-06-27T07:31:50.040Z,4004.00
2019-06-27T07:32:50.042Z,3916.00
2019-06-27T07:33:50.049Z,3784.00
2019-06-27T07:34:50.042Z,3876.00
2019-06-27T07:35:50.054Z,3800.00
2019-06-27T07:36:50.062Z,3696.00
2019-06-27T07:37:50.076Z,3608.00
2019-06-27T07:38:50.123Z,3800.00
2019-06-27T07:39:50.069Z,3736.00
2019-06-27T07:40:50.098Z,3780.00
2019-06-27T07:41:50.081Z,3508.00
2019-06-27T07:42:50.116Z,3708.00
2019-06-27T07:43:50.156Z,3744.00
2019-06-27T07:44:50.107Z,3604.00
2019-06-27T07:45:50.142Z,3580.00
2019-06-27T07:46:50.143Z,3556.00
2019-06-27T07:47:50.138Z,3584.00
2019-06-27T07:48:50.243Z,3408.00
2019-06-27T07:49:50.154Z,3484.00
2019-06-27T07:50:50.318Z,2076.00
2019-06-27T07:51:50.177Z,3528.00
2019-06-27T07:52:50.224Z,3496.00
2019-06-27T07:53:50.260Z,3632.00
2019-06-27T07:54:50.197Z,3468.00
2019-06-27T07:55:50.221Z,3528.00
2019-06-27T07:56:50.275Z,3344.00
2019-06-27T07:57:50.229Z,3252.00
2019-06-27T07:58:50.278Z,3444.00
2019-06-27T07:59:50.235Z,3296.00
2019-06-27T08:00:50.260Z,3360.00
2019-06-27T08:01:50.251Z,3372.00
2019-06-27T08:02:50.266Z,3336.00
2019-06-27T08:03:50.273Z,3344.00
2019-06-27T08:04:50.283Z,3256.00
2019-06-27T08:05:50.288Z,3356.00
2019-06-27T08:07:00.020Z,3324.00
2019-06-27T08:08:55.449Z,3364.00
2019-06-27T08:09:54.859Z,3268.00
2019-06-27T08:10:54.961Z,2620.00
2019-06-27T08:11:54.979Z,3248.00
2019-06-27T08:12:54.882Z,3224.00
2019-06-27T08:13:54.862Z,3096.00
2019-06-27T08:14:54.871Z,2972.00
2019-06-27T08:15:54.893Z,3132.00
2019-06-27T08:16:54.922Z,2400.00
2019-06-27T08:17:54.903Z,3060.00
2019-06-27T08:18:54.923Z,3032.00
2019-06-27T08:19:55.008Z,3092.00
2019-06-27T08:20:54.934Z,3044.00
2019-06-27T08:21:54.965Z,3052.00
2019-06-27T08:22:54.935Z,3008.00
2019-06-27T08:23:54.936Z,2992.00
2019-06-27T08:24:54.987Z,2968.00
2019-06-27T08:25:54.987Z,2916.00
2019-06-27T08:26:55.002Z,2960.00
2019-06-27T08:27:54.980Z,3056.00
2019-06-27T08:28:54.986Z,3024.00
2019-06-27T08:29:55.001Z,2948.00
2019-06-27T08:30:55.018Z,3000.00
2019-06-27T08:31:54.999Z,2960.00
2019-06-27T08:32:55.004Z,2864.00
2019-06-27T08:33:55.048Z,2636.00
2019-06-27T08:34:55.038Z,3188.00
2019-06-27T08:35:55.033Z,2956.00
2019-06-27T08:36:55.037Z,2836.00
2019-06-27T08:37:55.081Z,2428.00
2019-06-27T08:38:55.075Z,2712.00
2019-06-27T08:39:55.072Z,2908.00
2019-06-27T08:40:55.095Z,2868.00
2019-06-27T08:41:55.150Z,2772.00
2019-06-27T08:42:55.115Z,2448.00
2019-06-27T08:43:55.099Z,2468.00
2019-06-27T08:44:55.134Z,2684.00
2019-06-27T08:45:55.127Z,2552.00
2019-06-27T08:46:55.119Z,2560.00
2019-06-27T08:47:55.156Z,2524.00
2019-06-27T08:48:55.143Z,2396.00
2019-06-27T08:49:55.183Z,2704.00
2019-06-27T08:50:55.175Z,2648.00
2019-06-27T08:51:55.173Z,2556.00
2019-06-27T08:52:55.212Z,2620.00
2019-06-27T08:53:55.192Z,2640.00
2019-06-27T08:54:55.211Z,2448.00
2019-06-27T08:55:55.301Z,2316.00
2019-06-27T08:56:55.254Z,2580.00
2019-06-27T08:57:55.215Z,2244.00
2019-06-27T08:58:55.440Z,2452.00
2019-06-27T08:59:55.233Z,2412.00
2019-06-27T09:00:55.238Z,2480.00
2019-06-27T09:02:08.122Z,2460.00
2019-06-27T09:02:55.261Z,2424.00
2019-06-27T09:03:55.258Z,2440.00
2019-06-27T09:06:47.549Z,2408.00
2019-06-27T09:07:47.193Z,2396.00
2019-06-27T09:09:52.123Z,2344.00
2019-06-27T09:10:51.735Z,2368.00
2019-06-27T09:12:57.585Z,2380.00
2019-06-27T09:13:57.270Z,2260.00
2019-06-27T09:15:53.128Z,2332.00
2019-06-27T09:16:53.097Z,2236.00
2019-06-27T09:17:53.073Z,2116.00
2019-06-27T09:18:53.096Z,2188.00
2019-06-27T09:19:53.104Z,1964.00
2019-06-27T09:20:53.085Z,2176.00
2019-06-27T09:21:53.110Z,2208.00
2019-06-27T09:22:53.113Z,2164.00
2019-06-27T09:23:53.125Z,2180.00
2019-06-27T09:24:53.122Z,1992.00
2019-06-27T09:25:53.125Z,2148.00
2019-06-27T09:26:53.145Z,2008.00
2019-06-27T09:27:53.176Z,2104.00
2019-06-27T09:28:53.172Z,2072.00
2019-06-27T09:29:53.168Z,2028.00
2019-06-27T09:30:53.180Z,2088.00
2019-06-27T09:31:53.181Z,2028.00
2019-06-27T09:32:53.212Z,2032.00
2019-06-27T09:33:53.225Z,2004.00
2019-06-27T09:34:53.222Z,2004.00
2019-06-27T09:35:53.220Z,2020.00
2019-06-27T09:36:53.223Z,2032.00
2019-06-27T09:37:53.236Z,1972.00
2019-06-27T09:38:53.262Z,2028.00
2019-06-27T09:39:53.307Z,1988.00
2019-06-27T09:40:53.270Z,1960.00
2019-06-27T09:41:53.281Z,1976.00
2019-06-27T09:42:53.288Z,1952.00
2019-06-27T09:43:53.333Z,1884.00
2019-06-27T09:44:53.291Z,2064.00
2019-06-27T09:45:53.330Z,1944.00
2019-06-27T09:46:53.321Z,1856.00
2019-06-27T09:47:53.310Z,1944.00
2019-06-27T09:48:53.313Z,1968.00
2019-06-27T09:49:53.323Z,1784.00
2019-06-27T09:50:53.365Z,1752.00
2019-06-27T09:51:53.342Z,1912.00
2019-06-27T09:52:53.359Z,1864.00
2019-06-27T09:53:53.407Z,1692.00
2019-06-27T09:54:53.426Z,1824.00
2019-06-27T09:55:53.413Z,1856.00
2019-06-27T09:56:53.391Z,1816.00
2019-06-27T09:57:53.418Z,1768.00
2019-06-27T09:58:53.434Z,1820.00
2019-06-27T09:59:53.426Z,1756.00
2019-06-27T10:00:53.454Z,1868.00
2019-06-27T10:01:53.428Z,1852.00
2019-06-27T10:02:53.483Z,1828.00
2019-06-27T10:03:53.493Z,2024.00
2019-06-27T10:04:53.459Z,1824.00
2019-06-27T10:05:53.493Z,1816.00
2019-06-27T10:06:53.520Z,1812.00
2019-06-27T10:07:53.495Z,1840.00
2019-06-27T10:08:53.531Z,1764.00
2019-06-27T10:09:53.559Z,1780.00
2019-06-27T10:10:53.535Z,1796.00
2019-06-27T10:11:53.604Z,1744.00
2019-06-27T10:12:53.567Z,1744.00
2019-06-27T10:13:53.582Z,1840.00
2019-06-27T10:14:53.551Z,1724.00
2019-06-27T10:15:53.616Z,1752.00
2019-06-27T10:16:53.589Z,1800.00
2019-06-27T10:17:53.577Z,1716.00
2019-06-27T10:18:53.594Z,1776.00
2019-06-27T10:19:53.637Z,1712.00
2019-06-27T10:20:53.614Z,1628.00
2019-06-27T10:21:53.602Z,1688.00
2019-06-27T10:22:53.617Z,1760.00
2019-06-27T10:23:53.652Z,1512.00
2019-06-27T10:24:53.640Z,1648.00
2019-06-27T10:25:53.639Z,1620.00
2019-06-27T10:26:53.663Z,1636.00
2019-06-27T10:27:53.658Z,1728.00
2019-06-27T10:28:53.684Z,1620.00
2019-06-27T10:29:53.695Z,1576.00
2019-06-27T10:30:53.693Z,1580.00
2019-06-27T10:31:53.686Z,1572.00
2019-06-27T10:32:59.323Z,1644.00
2019-06-27T10:33:53.746Z,1588.00
2019-06-27T10:34:53.734Z,1640.00
2019-06-27T10:35:53.735Z,1600.00
2019-06-27T10:36:53.730Z,1476.00
2019-06-27T10:37:53.786Z,1556.00
2019-06-27T10:38:53.772Z,1512.00
2019-06-27T10:39:53.767Z,1544.00
2019-06-27T10:40:53.827Z,1488.00
2019-06-27T10:41:53.809Z,1516.00
2019-06-27T10:42:53.841Z,1496.00
2019-06-27T10:43:53.788Z,1492.00
2019-06-27T10:44:53.835Z,1328.00
2019-06-27T10:45:53.844Z,1456.00
2019-06-27T10:46:53.833Z,1440.00
2019-06-27T10:47:53.837Z,1464.00
2019-06-27T10:48:53.852Z,1528.00
2019-06-27T10:49:53.866Z,1488.00
2019-06-27T10:50:54.840Z,1444.00
2019-06-27T10:51:53.931Z,1448.00
2019-06-27T10:52:53.914Z,1428.00
2019-06-27T10:53:53.882Z,1444.00
2019-06-27T10:54:53.927Z,1412.00
2019-06-27T10:55:53.901Z,1412.00
2019-06-27T10:56:53.920Z,1420.00
2019-06-27T10:57:53.920Z,1404.00
2019-06-27T10:58:53.922Z,1428.00
2019-06-27T10:59:53.932Z,1352.00
2019-06-27T11:00:54.007Z,1348.00
2019-06-27T11:01:53.997Z,1412.00
2019-06-27T11:02:53.961Z,1340.00
2019-06-27T11:03:53.970Z,1352.00
2019-06-27T11:04:54.013Z,1380.00
2019-06-27T11:06:02.647Z,1344.00
2019-06-27T11:08:09.832Z,1300.00
2019-06-27T11:09:09.803Z,1300.00
2019-06-27T11:10:09.815Z,1348.00
2019-06-27T11:11:09.796Z,1316.00
2019-06-27T11:12:09.818Z,1332.00
2019-06-27T11:13:09.839Z,1312.00
2019-06-27T11:14:09.837Z,1292.00
2019-06-27T11:15:09.854Z,1312.00
2019-06-27T11:16:18.539Z,1136.00
2019-06-27T11:18:14.807Z,1308.00
2019-06-27T11:19:14.803Z,1256.00
2019-06-27T11:20:23.428Z,1304.00
2019-06-27T11:22:19.369Z,1236.00
2019-06-27T11:23:19.424Z,1108.00
2019-06-27T11:24:19.428Z,1228.00
2019-06-27T11:25:19.344Z,1248.00
2019-06-27T11:26:19.349Z,1236.00
2019-06-27T11:27:19.432Z,1264.00
2019-06-27T11:28:19.375Z,1272.00
2019-06-27T11:29:19.394Z,1272.00
2019-06-27T11:30:19.426Z,1212.00
2019-06-27T11:31:19.399Z,1232.00
2019-06-27T11:32:19.402Z,1220.00
2019-06-27T11:33:31.961Z,1212.00
2019-06-27T11:34:19.469Z,1188.00
2019-06-27T11:35:19.425Z,1208.00
2019-06-27T11:36:19.444Z,1204.00
2019-06-27T11:37:19.475Z,1228.00
2019-06-27T11:38:28.741Z,1184.00
2019-06-27T11:40:22.937Z,1172.00
2019-06-27T11:41:12.899Z,1168.00
2019-06-27T11:42:12.910Z,1160.00
2019-06-27T11:43:13.006Z,1192.00
2019-06-27T11:44:12.904Z,1212.00
2019-06-27T11:45:13.012Z,1092.00
2019-06-27T11:46:12.953Z,1160.00
2019-06-27T11:47:12.955Z,1156.00
2019-06-27T11:48:12.947Z,1188.00
2019-06-27T11:49:12.951Z,1088.00
2019-06-27T11:50:13.886Z,1072.00
2019-06-27T11:51:13.019Z,1080.00
2019-06-27T11:52:13.032Z,1056.00
2019-06-27T11:53:12.987Z,1064.00
2019-06-27T11:54:13.015Z,1120.00
2019-06-27T11:55:12.998Z,1132.00
2019-06-27T11:56:13.009Z,1092.00
2019-06-27T11:57:13.049Z,1124.00
2019-06-27T11:58:13.057Z,1096.00
2019-06-27T11:59:13.056Z,1092.00
2019-06-27T12:00:13.059Z,1140.00
2019-06-27T12:01:13.095Z,1100.00
2019-06-27T12:02:13.072Z,1080.00
2019-06-27T12:03:13.119Z,1072.00
2019-06-27T12:04:13.089Z,1032.00
2019-06-27T12:05:13.088Z,1068.00
2019-06-27T12:06:13.125Z,1052.00
2019-06-27T12:07:13.111Z,1068.00
2019-06-27T12:08:13.115Z,1136.00
2019-06-27T12:09:13.208Z,1084.00
2019-06-27T12:10:13.152Z,1060.00
2019-06-27T12:11:13.152Z,1052.00
2019-06-27T12:12:13.158Z,1076.00
2019-06-27T12:13:13.191Z,1036.00
2019-06-27T12:14:13.162Z,1032.00
2019-06-27T12:15:13.186Z,1028.00
2019-06-27T12:16:13.234Z,1044.00
2019-06-27T12:17:13.214Z,1032.00
2019-06-27T12:18:13.225Z,1028.00
2019-06-27T12:19:13.264Z,1048.00
2019-06-27T12:20:13.257Z,1048.00
2019-06-27T12:21:13.252Z,1036.00
2019-06-27T12:22:13.236Z,1064.00
2019-06-27T12:23:13.246Z,1000.00
2019-06-27T12:24:13.316Z,1028.00
2019-06-27T12:25:13.308Z,1024.00
2019-06-27T12:26:13.285Z,1016.00
2019-06-27T12:27:13.294Z,1008.00
2019-06-27T12:28:13.344Z,1012.00
2019-06-27T12:29:13.322Z,992.00
2019-06-27T12:30:13.362Z,1124.00
2019-06-27T12:31:20.287Z,956.00
2019-06-27T12:32:13.419Z,1008.00
2019-06-27T12:33:13.361Z,980.00
2019-06-27T12:34:13.346Z,1004.00
2019-06-27T12:35:13.359Z,940.00
2019-06-27T12:36:13.381Z,960.00
2019-06-27T12:37:13.387Z,984.00
2019-06-27T12:38:13.417Z,1008.00
2019-06-27T12:39:13.405Z,984.00
2019-06-27T12:40:13.481Z,996.00
2019-06-27T12:41:13.430Z,976.00
2019-06-27T12:42:13.423Z,976.00
2019-06-27T12:43:14.516Z,996.00
2019-06-27T12:44:13.436Z,996.00
2019-06-27T12:45:13.485Z,988.00
2019-06-27T12:46:13.476Z,996.00
2019-06-27T12:47:13.455Z,968.00
2019-06-27T12:48:13.502Z,1012.00
2019-06-27T12:49:13.500Z,944.00
2019-06-27T12:50:13.558Z,992.00
2019-06-27T12:51:13.530Z,964.00
2019-06-27T12:52:13.510Z,980.00
2019-06-27T12:53:13.517Z,952.00
2019-06-27T12:54:13.552Z,960.00
2019-06-27T12:55:13.589Z,964.00
2019-06-27T12:56:13.561Z,948.00
2019-06-27T12:57:13.605Z,972.00
2019-06-27T12:58:13.571Z,956.00
2019-06-27T12:59:13.593Z,976.00
2019-06-27T13:00:13.663Z,916.00
2019-06-27T13:01:13.631Z,964.00
2019-06-27T13:02:13.662Z,956.00
2019-06-27T13:03:13.600Z,948.00
2019-06-27T13:04:23.528Z,952.00
2019-06-27T13:05:13.632Z,940.00
2019-06-27T13:06:13.626Z,928.00
2019-06-27T13:07:13.646Z,940.00
2019-06-27T13:08:13.676Z,932.00
2019-06-27T13:09:13.676Z,960.00
2019-06-27T13:10:13.708Z,980.00
2019-06-27T13:11:22.391Z,952.00
2019-06-27T13:13:18.271Z,900.00
2019-06-27T13:14:18.223Z,936.00
2019-06-27T13:15:18.306Z,948.00
2019-06-27T13:16:18.281Z,948.00
2019-06-27T13:17:18.246Z,940.00
2019-06-27T13:18:18.231Z,964.00
2019-06-27T13:19:18.246Z,952.00
2019-06-27T13:20:18.243Z,972.00
2019-06-27T13:21:18.267Z,972.00
2019-06-27T13:22:18.312Z,956.00
2019-06-27T13:23:18.294Z,944.00
2019-06-27T13:24:18.283Z,952.00
2019-06-27T13:25:18.382Z,936.00
2019-06-27T13:26:27.084Z,948.00
2019-06-27T13:28:22.899Z,952.00
2019-06-27T13:29:31.574Z,960.00
2019-06-27T13:31:36.348Z,944.00
2019-06-27T13:32:27.414Z,932.00
2019-06-27T13:33:29.340Z,972.00
2019-06-27T13:34:40.072Z,948.00
2019-06-27T13:35:27.389Z,924.00
2019-06-27T13:36:27.429Z,924.00
2019-06-27T13:37:29.992Z,964.00
2019-06-27T13:38:27.400Z,932.00
2019-06-27T13:39:27.491Z,928.00
2019-06-27T13:40:27.428Z,928.00
2019-06-27T13:41:27.442Z,952.00
2019-06-27T13:42:27.501Z,908.00
2019-06-27T13:43:27.440Z,932.00
2019-06-27T13:44:27.486Z,956.00
2019-06-27T13:45:27.550Z,976.00
2019-06-27T13:46:27.521Z,984.00
2019-06-27T13:47:27.540Z,932.00
2019-06-27T13:48:27.519Z,932.00
2019-06-27T13:49:27.508Z,936.00
2019-06-27T13:50:27.520Z,928.00
2019-06-27T13:51:27.558Z,972.00
2019-06-27T13:52:27.561Z,960.00
2019-06-27T13:53:27.553Z,968.00
2019-06-27T13:54:27.536Z,900.00
2019-06-27T13:55:27.548Z,952.00
2019-06-27T13:56:27.745Z,916.00
2019-06-27T13:57:27.591Z,924.00
2019-06-27T13:58:27.602Z,920.00
2019-06-27T13:59:37.312Z,936.00
2019-06-27T14:01:32.200Z,936.00
2019-06-27T14:02:40.800Z,924.00
2019-06-27T14:06:04.684Z,972.00
2019-06-27T14:07:03.703Z,936.00
2019-06-27T14:08:59.577Z,932.00
2019-06-27T14:09:59.922Z,868.00
2019-06-27T14:11:09.002Z,956.00
2019-06-27T14:13:04.067Z,976.00
2019-06-27T14:14:04.080Z,944.00
2019-06-27T14:15:12.737Z,940.00
2019-06-27T14:17:09.308Z,952.00
2019-06-27T14:18:08.578Z,948.00
2019-06-27T14:19:08.659Z,936.00
2019-06-27T14:20:08.571Z,944.00
2019-06-27T14:21:08.610Z,904.00
2019-06-27T14:22:08.655Z,928.00
2019-06-27T14:23:08.638Z,936.00
2019-06-27T14:24:08.695Z,968.00
2019-06-27T14:25:08.670Z,928.00
2019-06-27T14:26:08.668Z,944.00
2019-06-27T14:27:08.665Z,948.00
2019-06-27T14:28:08.651Z,912.00
2019-06-27T14:29:08.661Z,948.00
2019-06-27T14:30:08.721Z,932.00
2019-06-27T14:31:08.675Z,932.00
2019-06-27T14:32:08.785Z,908.00
2019-06-27T14:33:08.741Z,960.00
2019-06-27T14:34:08.741Z,956.00
2019-06-27T14:35:15.416Z,952.00
2019-06-27T14:36:08.759Z,948.00
2019-06-27T14:37:08.743Z,956.00
2019-06-27T14:38:08.795Z,928.00
2019-06-27T14:39:08.741Z,944.00
2019-06-27T14:40:08.843Z,964.00
2019-06-27T14:41:08.769Z,940.00
2019-06-27T14:42:08.804Z,956.00
2019-06-27T14:43:08.814Z,948.00
2019-06-27T14:44:08.803Z,956.00
2019-06-27T14:45:08.850Z,920.00
2019-06-27T14:46:08.899Z,948.00
2019-06-27T14:47:08.846Z,924.00
2019-06-27T14:48:08.879Z,932.00
2019-06-27T14:49:08.865Z,972.00
2019-06-27T14:50:08.862Z,956.00
2019-06-27T14:51:08.885Z,972.00
2019-06-27T14:52:08.921Z,848.00
2019-06-27T14:53:08.900Z,940.00
2019-06-27T14:54:08.910Z,852.00
2019-06-27T14:55:08.896Z,940.00
2019-06-27T14:56:08.937Z,928.00
2019-06-27T14:57:08.918Z,916.00
2019-06-27T14:58:08.947Z,960.00
2019-06-27T14:59:08.985Z,928.00
2019-06-27T15:00:08.937Z,952.00
2019-06-27T15:01:09.976Z,952.00
2019-06-27T15:02:08.979Z,948.00
2019-06-27T15:03:09.013Z,924.00
2019-06-27T15:04:08.983Z,964.00
2019-06-27T15:05:09.003Z,920.00
2019-06-27T15:06:12.247Z,932.00
2019-06-27T15:07:09.011Z,948.00
2019-06-27T15:08:09.018Z,932.00
2019-06-27T15:09:09.037Z,988.00
2019-06-27T15:10:09.035Z,1008.00
2019-06-27T15:11:09.062Z,944.00
2019-06-27T15:12:09.050Z,948.00
2019-06-27T15:13:09.069Z,916.00
2019-06-27T15:14:09.126Z,1000.00
2019-06-27T15:15:17.842Z,1048.00
2019-06-27T15:17:23.611Z,936.00
2019-06-27T15:18:16.433Z,936.00
2019-06-27T15:19:13.620Z,940.00
2019-06-27T15:20:13.609Z,868.00
2019-06-27T15:21:13.669Z,980.00
2019-06-27T15:22:13.627Z,932.00
2019-06-27T15:23:13.654Z,948.00
2019-06-27T15:24:13.638Z,944.00
2019-06-27T15:25:13.669Z,948.00
2019-06-27T15:26:13.658Z,924.00
2019-06-27T15:27:13.669Z,988.00
2019-06-27T15:28:13.718Z,964.00
2019-06-27T15:29:13.695Z,1016.00
2019-06-27T15:30:13.702Z,936.00
2019-06-27T15:31:13.793Z,944.00
2019-06-27T15:32:13.754Z,932.00
2019-06-27T15:33:13.727Z,1004.00
2019-06-27T15:34:13.766Z,968.00
2019-06-27T15:35:13.772Z,972.00
2019-06-27T15:36:22.450Z,952.00
2019-06-27T15:38:27.420Z,1000.00
2019-06-27T15:39:27.024Z,960.00
2019-06-27T15:41:24.582Z,976.00
2019-06-27T15:42:23.851Z,996.00
2019-06-27T15:43:23.817Z,968.00
2019-06-27T15:44:23.875Z,980.00
2019-06-27T15:45:23.837Z,1020.00
2019-06-27T15:46:23.837Z,964.00
2019-06-27T15:47:33.284Z,1012.00
2019-06-27T15:49:30.194Z,1048.00
2019-06-27T15:50:28.367Z,1004.00
2019-06-27T15:51:28.367Z,1020.00
2019-06-27T15:52:28.394Z,1012.00
2019-06-27T15:53:28.382Z,976.00
2019-06-27T15:54:28.386Z,1040.00
2019-06-27T15:55:28.411Z,976.00
2019-06-27T15:56:28.414Z,988.00
2019-06-27T15:57:28.413Z,996.00
2019-06-27T15:58:28.435Z,996.00
2019-06-27T15:59:28.452Z,992.00
2019-06-27T16:00:28.444Z,1004.00
2019-06-27T16:01:28.453Z,1016.00
2019-06-27T16:02:28.484Z,992.00
2019-06-27T16:03:28.467Z,1008.00
2019-06-27T16:04:34.043Z,1044.00
2019-06-27T16:05:28.595Z,1012.00
2019-06-27T16:06:28.497Z,1028.00
2019-06-27T16:07:28.537Z,984.00
2019-06-27T16:08:28.530Z,1108.00
2019-06-27T16:09:28.551Z,1012.00
2019-06-27T16:10:28.577Z,976.00
2019-06-27T16:11:28.561Z,968.00
2019-06-27T16:12:28.577Z,988.00
2019-06-27T16:13:28.563Z,1100.00
2019-06-27T16:14:28.586Z,1000.00
2019-06-27T16:15:28.575Z,984.00
2019-06-27T16:16:28.603Z,1004.00
2019-06-27T16:17:28.627Z,1004.00
2019-06-27T16:18:28.601Z,912.00
2019-06-27T16:19:28.623Z,1008.00
2019-06-27T16:20:28.668Z,1004.00
2019-06-27T16:21:28.654Z,1004.00
2019-06-27T16:22:28.661Z,1004.00
2019-06-27T16:23:28.689Z,972.00
2019-06-27T16:24:28.672Z,836.00
2019-06-27T16:25:28.722Z,996.00
2019-06-27T16:26:28.699Z,980.00
2019-06-27T16:27:28.689Z,984.00
2019-06-27T16:28:28.693Z,980.00
2019-06-27T16:29:28.714Z,968.00
2019-06-27T16:30:28.724Z,960.00
2019-06-27T16:31:28.739Z,912.00
2019-06-27T16:32:37.405Z,1020.00
2019-06-27T16:34:33.305Z,956.00
2019-06-27T16:35:33.299Z,1032.00
2019-06-27T16:36:33.258Z,976.00
2019-06-27T16:37:33.314Z,960.00
2019-06-27T16:38:33.286Z,988.00
2019-06-27T16:39:33.279Z,988.00
2019-06-27T16:40:33.305Z,980.00
2019-06-27T16:41:33.307Z,960.00
2019-06-27T16:42:33.320Z,968.00
2019-06-27T16:43:33.315Z,964.00
2019-06-27T16:44:33.330Z,972.00
2019-06-27T16:45:33.335Z,972.00
2019-06-27T16:46:33.380Z,1020.00
2019-06-27T16:47:33.352Z,980.00
2019-06-27T16:48:33.427Z,976.00
2019-06-27T16:49:33.412Z,896.00
2019-06-27T16:50:33.437Z,964.00
2019-06-27T16:51:33.395Z,880.00
2019-06-27T16:52:33.450Z,968.00
2019-06-27T16:53:33.406Z,976.00
2019-06-27T16:54:33.428Z,988.00
2019-06-27T16:55:33.430Z,964.00
2019-06-27T16:56:33.498Z,1032.00
2019-06-27T16:57:33.495Z,976.00
2019-06-27T16:58:33.479Z,988.00
2019-06-27T16:59:33.470Z,1028.00
2019-06-27T17:00:33.468Z,1000.00
2019-06-27T17:01:33.538Z,1032.00
2019-06-27T17:02:33.486Z,1040.00
2019-06-27T17:03:33.497Z,1076.00
2019-06-27T17:04:33.553Z,1084.00
2019-06-27T17:05:33.535Z,1028.00
2019-06-27T17:06:42.008Z,1100.00
2019-06-27T17:07:33.535Z,1052.00
2019-06-27T17:08:33.557Z,1176.00
2019-06-27T17:09:33.588Z,1144.00
2019-06-27T17:10:33.574Z,1172.00
2019-06-27T17:11:33.564Z,1156.00
2019-06-27T17:12:33.586Z,1172.00
2019-06-27T17:13:33.600Z,1196.00